Time;durP1;ratioP1;P1;durP2;ratioP2;P2;SDS_P1;SDS_P2;PMS_P1;PMS_P2;Temp;Humidity;BMP_temperature;BMP_pressure;BME280_temperature;BME280_humidity;BME280_pressure;Samples;Min_cycle;Max_cycle;Signal;HPM_P1;HPM_P2
2022/10/14 00:01:37;;;;;;;28.93;23.17;;;12.80;1.00;;;;;;5064045;28;20291;-53
2022/10/14 00:04:03;;;;;;;25.93;23.13;;;12.70;1.00;;;;;;5046500;28;20199;-54
2022/10/14 00:06:31;;;;;;;25.37;20.87;;;12.70;1.00;;;;;;5047935;28;20199;-52
2022/10/14 00:09:02;;;;;;;29.27;23.17;;;12.70;1.00;;;;;;5067652;28;20509;-54
2022/10/14 00:11:30;;;;;;;28.60;22.30;;;12.70;1.00;;;;;;5056725;28;20539;-54
2022/10/14 00:14:04;;;;;;;28.33;22.77;;;12.60;1.00;;;;;;5049279;28;20442;-54
2022/10/14 00:16:33;;;;;;;27.07;24.17;;;12.70;1.00;;;;;;5058170;28;20464;-53
2022/10/14 00:19:00;;;;;;;26.20;21.90;;;12.70;1.00;;;;;;5058841;28;20441;-56
2022/10/14 00:21:27;;;;;;;28.80;23.90;;;12.60;1.00;;;;;;5061214;28;20502;-57
2022/10/14 00:23:53;;;;;;;30.90;23.40;;;12.60;1.00;;;;;;5054263;28;20445;-56
2022/10/14 00:26:20;;;;;;;29.90;23.70;;;12.60;1.00;;;;;;5061455;28;20545;-57
2022/10/14 00:28:46;;;;;;;27.33;23.37;;;12.70;1.00;;;;;;5060609;28;20456;-57
2022/10/14 00:31:12;;;;;;;27.17;21.00;;;12.70;1.00;;;;;;5055510;28;20481;-56
2022/10/14 00:33:38;;;;;;;31.27;22.87;;;12.80;1.00;;;;;;5058175;28;20249;-56
2022/10/14 00:36:07;;;;;;;27.53;22.10;;;12.90;1.00;;;;;;5058003;28;20868;-57
2022/10/14 00:38:34;;;;;;;29.10;22.13;;;12.90;1.00;;;;;;5054094;28;20182;-57
2022/10/14 00:41:00;;;;;;;31.67;23.57;;;12.90;1.00;;;;;;5060910;28;20508;-57
2022/10/14 00:43:27;;;;;;;25.40;21.43;;;12.90;1.00;;;;;;5051575;28;20987;-56
2022/10/14 00:45:53;;;;;;;27.97;22.37;;;12.90;1.00;;;;;;5057943;28;20775;-57
2022/10/14 00:48:21;;;;;;;25.47;21.23;;;13.00;1.00;;;;;;5059229;28;20424;-57
2022/10/14 00:50:51;;;;;;;26.60;22.33;;;13.00;1.00;;;;;;5058994;28;20192;-56
2022/10/14 00:53:18;;;;;;;26.43;21.93;;;13.00;1.00;;;;;;5059502;28;20872;-57
2022/10/14 00:55:44;;;;;;;26.90;21.83;;;13.00;1.00;;;;;;5057688;28;20409;-56
2022/10/14 00:58:10;;;;;;;33.67;21.53;;;14.10;1.00;;;;;;5059990;28;20491;-57
2022/10/14 01:00:37;;;;;;;25.63;21.53;;;13.10;1.00;;;;;;5060486;28;20441;-57
2022/10/14 01:03:09;;;;;;;29.33;22.77;;;13.10;1.00;;;;;;5053083;28;20192;-57
2022/10/14 01:05:53;;;;;;;26.70;22.37;;;13.20;1.00;;;;;;5058639;28;20448;-57
2022/10/14 01:08:36;;;;;;;29.83;22.40;;;13.20;1.00;;;;;;5055277;28;20424;-57
2022/10/14 01:11:26;;;;;;;24.50;20.10;;;13.20;1.00;;;;;;5049967;28;20495;-56
2022/10/14 01:14:25;;;;;;;28.13;21.57;;;13.30;1.00;;;;;;5056482;28;20446;-56
2022/10/14 01:17:07;;;;;;;28.27;21.87;;;13.20;1.00;;;;;;5058518;28;20847;-56
2022/10/14 01:20:12;;;;;;;24.80;20.57;;;13.20;1.00;;;;;;5056266;28;20452;-56
2022/10/14 01:22:57;;;;;;;30.37;22.43;;;13.30;1.00;;;;;;5062199;28;20460;-57
2022/10/14 01:25:42;;;;;;;27.60;21.37;;;13.20;1.00;;;;;;5058618;28;20446;-57
2022/10/14 01:28:25;;;;;;;27.77;22.60;;;13.20;1.00;;;;;;5055409;28;20460;-56
2022/10/14 01:31:05;;;;;;;30.17;22.90;;;13.20;1.00;;;;;;5057139;28;20445;-56
2022/10/14 01:33:41;;;;;;;28.67;20.90;;;13.30;1.00;;;;;;5062483;28;20794;-58
2022/10/14 01:36:17;;;;;;;28.80;22.77;;;13.40;1.00;;;;;;5053048;28;20447;-57
2022/10/14 01:38:48;;;;;;;31.77;23.60;;;13.40;1.00;;;;;;5052928;28;20433;-57
2022/10/14 01:41:22;;;;;;;28.30;22.20;;;13.50;1.00;;;;;;5053612;28;20453;-57
2022/10/14 01:43:50;;;;;;;33.23;22.60;;;13.40;1.00;;;;;;5056549;28;20789;-58
2022/10/14 01:46:18;;;;;;;32.63;23.60;;;13.40;1.00;;;;;;5062693;28;20541;-57
2022/10/14 01:48:58;;;;;;;25.23;21.63;;;13.40;1.00;;;;;;5057988;28;20455;-58
2022/10/14 01:51:30;;;;;;;29.73;23.00;;;13.40;1.00;;;;;;5059670;28;20479;-57
2022/10/14 01:54:01;;;;;;;29.07;22.33;;;13.40;1.00;;;;;;5051304;28;20464;-58
2022/10/14 01:56:30;;;;;;;23.90;20.03;;;13.40;1.00;;;;;;5055606;28;20477;-56
2022/10/14 01:58:58;;;;;;;29.13;19.67;;;13.40;1.00;;;;;;5057678;28;20584;-56
2022/10/14 02:01:24;;;;;;;29.33;22.50;;;;;;;;;;5056150;28;20462;-57
2022/10/14 02:03:49;;;;;;;27.60;21.07;;;13.40;1.00;;;;;;5054565;28;20443;-57
2022/10/14 02:06:47;;;;;;;26.90;22.37;;;13.50;1.00;;;;;;5054617;28;20999;-57
2022/10/14 02:09:37;;;;;;;28.43;22.27;;;13.50;1.00;;;;;;5050143;28;20650;-57
2022/10/14 02:12:33;;;;;;;25.80;21.23;;;13.50;1.00;;;;;;5051880;28;20456;-57
2022/10/14 02:15:08;;;;;;;31.00;23.03;;;13.40;1.00;;;;;;5066807;28;20484;-57
2022/10/14 02:17:56;;;;;;;27.13;21.20;;;13.40;1.00;;;;;;5056951;28;20523;-58
2022/10/14 02:20:25;;;;;;;25.77;22.13;;;13.40;1.00;;;;;;5051462;28;20453;-57
2022/10/14 02:23:07;;;;;;;30.93;22.90;;;13.50;1.00;;;;;;5059884;28;20998;-57
2022/10/14 02:25:36;;;;;;;28.03;23.10;;;13.40;1.00;;;;;;5060289;28;20494;-58
2022/10/14 02:28:03;;;;;;;26.57;22.70;;;13.40;1.00;;;;;;5051426;28;20454;-56
2022/10/14 02:30:31;;;;;;;26.90;22.13;;;13.40;1.00;;;;;;5054140;28;20540;-56
2022/10/14 02:32:59;;;;;;;25.53;22.00;;;13.40;1.00;;;;;;5054769;28;20478;-57
2022/10/14 02:35:26;;;;;;;27.90;21.90;;;13.40;1.00;;;;;;5057682;28;20446;-58
2022/10/14 02:37:54;;;;;;;29.10;23.00;;;13.30;1.00;;;;;;5053974;28;20848;-57
2022/10/14 02:40:25;;;;;;;28.33;22.27;;;13.30;1.00;;;;;;5053213;28;20502;-56
2022/10/14 02:42:51;;;;;;;32.37;22.10;;;13.40;1.00;;;;;;5051335;28;21043;-56
2022/10/14 02:45:17;;;;;;;26.17;22.13;;;13.40;1.00;;;;;;5056661;28;20449;-58
2022/10/14 02:47:43;;;;;;;27.93;22.27;;;13.40;1.00;;;;;;5053405;28;20184;-57
2022/10/14 02:50:09;;;;;;;29.10;22.40;;;13.40;1.00;;;;;;5055892;28;20935;-57
2022/10/14 02:52:35;;;;;;;32.00;23.60;;;13.30;1.00;;;;;;5056588;28;20592;-56
2022/10/14 02:55:00;;;;;;;27.27;23.97;;;13.40;1.00;;;;;;5057330;28;20530;-56
2022/10/14 02:57:26;;;;;;;30.67;25.50;;;13.40;1.00;;;;;;5059442;28;20656;-57
2022/10/14 02:59:51;;;;;;;31.77;23.63;;;13.40;1.00;;;;;;5050404;28;20219;-56
2022/10/14 03:02:17;;;;;;;28.50;23.50;;;13.50;1.00;;;;;;5050180;28;20187;-58
2022/10/14 03:04:43;;;;;;;28.00;23.40;;;13.50;1.00;;;;;;5056345;28;20183;-56
2022/10/14 03:07:08;;;;;;;30.67;24.17;;;13.50;1.00;;;;;;5058862;28;20255;-56
2022/10/14 03:09:34;;;;;;;29.63;24.20;;;13.60;1.00;;;;;;5058074;28;20267;-56
2022/10/14 03:11:59;;;;;;;33.97;23.70;;;13.60;1.00;;;;;;5050007;28;20203;-57
2022/10/14 03:14:25;;;;;;;32.80;24.37;;;13.60;1.00;;;;;;5051502;28;20208;-56
2022/10/14 03:16:51;;;;;;;32.90;24.20;;;13.60;1.00;;;;;;5052652;28;20212;-56
2022/10/14 03:19:16;;;;;;;31.43;24.70;;;13.60;1.00;;;;;;5054015;28;20222;-56
2022/10/14 03:21:42;;;;;;;29.23;24.23;;;13.60;1.00;;;;;;5050131;28;20280;-57
2022/10/14 03:24:08;;;;;;;31.07;24.07;;;13.60;1.00;;;;;;5048216;28;20202;-56
2022/10/14 03:26:34;;;;;;;30.77;24.67;;;13.60;1.00;;;;;;5049953;28;20194;-55
2022/10/14 03:28:59;;;;;;;33.70;25.53;;;13.60;1.00;;;;;;5047326;28;20453;-56
2022/10/14 03:31:25;;;;;;;34.13;23.73;;;13.60;1.00;;;;;;5050307;28;20208;-56
2022/10/14 03:33:50;;;;;;;30.70;24.33;;;13.60;1.00;;;;;;5053827;28;20223;-56
2022/10/14 03:36:16;;;;;;;27.63;24.03;;;13.50;1.00;;;;;;5054275;28;20663;-57
2022/10/14 03:38:42;;;;;;;30.00;24.63;;;13.50;1.00;;;;;;5049975;28;20190;-56
2022/10/14 03:41:07;;;;;;;27.00;23.37;;;13.50;1.00;;;;;;5052323;28;20191;-56
2022/10/14 03:43:33;;;;;;;30.77;24.60;;;13.60;1.00;;;;;;5050048;28;20226;-56
2022/10/14 03:45:58;;;;;;;27.90;23.17;;;13.60;1.00;;;;;;5057461;28;20176;-57
2022/10/14 03:48:24;;;;;;;32.00;25.17;;;13.60;1.00;;;;;;5053696;28;20184;-57
2022/10/14 03:50:49;;;;;;;28.97;24.83;;;13.60;1.00;;;;;;5068839;28;20186;-57
2022/10/14 03:53:15;;;;;;;28.83;25.70;;;13.60;1.00;;;;;;5053461;28;20284;-57
2022/10/14 03:55:41;;;;;;;33.13;25.93;;;13.50;1.00;;;;;;5056899;28;20640;-56
2022/10/14 03:58:06;;;;;;;32.17;24.30;;;13.50;1.00;;;;;;5053389;28;20246;-57
2022/10/14 04:00:34;;;;;;;28.23;24.00;;;13.50;1.00;;;;;;5053838;28;20667;-56
2022/10/14 04:03:00;;;;;;;29.53;23.20;;;13.50;1.00;;;;;;5051716;28;20188;-56
2022/10/14 04:05:28;;;;;;;31.70;23.47;;;13.50;1.00;;;;;;5065449;28;20484;-56
2022/10/14 04:07:53;;;;;;;33.47;25.87;;;13.50;1.00;;;;;;5059455;28;20195;-57
2022/10/14 04:10:19;;;;;;;35.20;24.53;;;13.50;1.00;;;;;;5055915;28;20445;-56
2022/10/14 04:12:44;;;;;;;29.93;24.50;;;13.60;1.00;;;;;;5064044;28;20241;-57
2022/10/14 04:15:10;;;;;;;30.17;26.60;;;13.50;1.00;;;;;;5055201;28;20271;-57
2022/10/14 04:17:35;;;;;;;32.87;26.10;;;13.70;1.00;;;;;;5057139;28;20290;-56
2022/10/14 04:20:01;;;;;;;40.10;27.20;;;13.60;1.00;;;;;;5055021;28;20594;-57
2022/10/14 04:22:28;;;;;;;31.43;24.80;;;13.50;1.00;;;;;;5059471;28;20280;-57
2022/10/14 04:24:54;;;;;;;31.10;25.20;;;13.50;1.00;;;;;;5059046;28;20241;-56
2022/10/14 04:27:20;;;;;;;29.40;25.10;;;13.60;1.00;;;;;;5061130;28;20809;-57
2022/10/14 04:29:45;;;;;;;32.17;23.80;;;16.00;1.00;;;;;;5060030;28;20188;-57
2022/10/14 04:32:11;;;;;;;31.80;25.13;;;13.50;1.00;;;;;;5060085;28;20196;-57
2022/10/14 04:34:36;;;;;;;33.17;26.00;;;13.50;1.00;;;;;;5057925;28;20200;-57
2022/10/14 04:37:03;;;;;;;32.00;25.43;;;13.60;1.00;;;;;;5056241;28;20577;-57
2022/10/14 04:39:29;;;;;;;33.70;25.83;;;13.60;1.00;;;;;;5058148;28;20583;-57
2022/10/14 04:41:54;;;;;;;35.60;29.07;;;13.60;1.00;;;;;;5059903;28;20436;-57
2022/10/14 04:44:20;;;;;;;39.20;27.20;;;13.60;1.00;;;;;;5050070;28;20279;-57
2022/10/14 04:46:45;;;;;;;31.23;25.40;;;13.70;1.00;;;;;;5061455;28;20188;-57
2022/10/14 04:49:11;;;;;;;36.77;27.43;;;13.60;1.00;;;;;;5057723;28;20262;-56
2022/10/14 04:51:37;;;;;;;32.70;27.10;;;13.60;1.00;;;;;;5052428;28;20199;-56
2022/10/14 04:54:03;;;;;;;33.90;25.10;;;13.60;1.00;;;;;;5055310;28;20179;-56
2022/10/14 04:56:29;;;;;;;33.90;27.40;;;13.60;1.00;;;;;;5058678;28;20206;-57
2022/10/14 04:58:54;;;;;;;30.07;25.50;;;13.70;1.00;;;;;;5054546;28;20798;-56
2022/10/14 05:01:20;;;;;;;34.60;26.90;;;13.60;1.00;;;;;;5052498;28;20621;-56
2022/10/14 05:03:47;;;;;;;41.17;27.70;;;13.60;1.00;;;;;;5055150;28;20647;-57
2022/10/14 05:06:12;;;;;;;33.87;26.90;;;13.50;1.00;;;;;;5050282;28;20194;-57
2022/10/14 05:08:38;;;;;;;30.47;25.50;;;13.50;1.00;;;;;;5055838;28;20886;-56
2022/10/14 05:11:03;;;;;;;34.77;27.50;;;13.50;1.00;;;;;;5052477;28;20482;-57
2022/10/14 05:13:29;;;;;;;43.60;28.03;;;13.50;1.00;;;;;;5050437;28;20271;-57
2022/10/14 05:15:55;;;;;;;39.50;28.00;;;13.60;1.00;;;;;;5057227;28;20273;-57
2022/10/14 05:18:21;;;;;;;33.27;29.60;;;13.60;1.00;;;;;;5060433;28;20453;-57
2022/10/14 05:20:46;;;;;;;34.30;28.57;;;13.60;1.00;;;;;;5063553;28;20688;-60
2022/10/14 05:23:12;;;;;;;31.27;27.17;;;13.50;1.00;;;;;;5059514;28;20206;-57
2022/10/14 05:25:38;;;;;;;34.03;27.47;;;13.60;1.00;;;;;;5047951;28;20187;-57
2022/10/14 05:28:03;;;;;;;37.17;28.27;;;13.60;1.00;;;;;;5058430;28;20191;-56
2022/10/14 05:30:29;;;;;;;39.00;28.13;;;13.60;1.00;;;;;;5054774;28;20637;-57
2022/10/14 05:32:56;;;;;;;39.07;28.10;;;13.70;1.00;;;;;;5059103;28;20213;-57
2022/10/14 05:35:21;;;;;;;40.40;30.70;;;13.70;1.00;;;;;;5056247;28;20781;-56
2022/10/14 05:37:47;;;;;;;38.93;28.00;;;13.70;1.00;;;;;;5044190;28;20677;-57
2022/10/14 05:40:13;;;;;;;42.00;27.60;;;13.70;1.00;;;;;;5048037;28;20198;-57
2022/10/14 05:42:38;;;;;;;36.37;28.70;;;13.70;1.00;;;;;;5057156;28;20198;-57
2022/10/14 05:45:04;;;;;;;38.47;28.40;;;13.70;1.00;;;;;;5045150;28;20305;-57
2022/10/14 05:47:30;;;;;;;35.23;29.17;;;13.70;1.00;;;;;;5051766;28;20555;-57
2022/10/14 05:49:55;;;;;;;45.77;29.50;;;13.70;1.00;;;;;;5055336;28;20462;-57
2022/10/14 05:52:21;;;;;;;37.87;29.27;;;13.80;1.00;;;;;;5053995;28;20189;-57
2022/10/14 05:54:47;;;;;;;39.23;30.43;;;13.80;1.00;;;;;;5049700;28;20199;-57
2022/10/14 05:57:12;;;;;;;39.67;28.40;;;13.80;1.00;;;;;;5049645;28;20298;-57
2022/10/14 05:59:38;;;;;;;36.87;29.00;;;13.80;1.00;;;;;;5050587;28;20204;-58
2022/10/14 06:02:03;;;;;;;43.43;29.47;;;13.80;1.00;;;;;;5059886;28;20174;-58
2022/10/14 06:04:29;;;;;;;37.30;27.50;;;13.80;1.00;;;;;;5044132;28;20682;-55
2022/10/14 06:06:54;;;;;;;37.50;28.53;;;13.80;1.00;;;;;;5053293;28;20187;-57
2022/10/14 06:09:20;;;;;;;42.53;29.57;;;13.90;1.00;;;;;;5053705;28;20179;-57
2022/10/14 06:11:46;;;;;;;35.70;28.33;;;14.00;1.00;;;;;;5056005;28;20198;-58
2022/10/14 06:14:11;;;;;;;35.83;27.50;;;14.00;1.00;;;;;;5047459;28;20181;-56
2022/10/14 06:16:37;;;;;;;36.80;29.03;;;14.00;1.00;;;;;;5050462;28;20197;-57
2022/10/14 06:19:03;;;;;;;38.73;27.43;;;14.00;1.00;;;;;;5046429;28;20203;-56
2022/10/14 06:21:28;;;;;;;37.77;29.63;;;14.00;1.00;;;;;;5046865;28;20195;-57
2022/10/14 06:23:54;;;;;;;35.97;26.87;;;14.10;1.00;;;;;;5049034;28;20668;-56
2022/10/14 06:26:19;;;;;;;42.07;29.63;;;14.10;1.00;;;;;;5047225;28;20183;-57
2022/10/14 06:28:45;;;;;;;36.60;27.23;;;14.10;1.00;;;;;;5047366;28;20196;-55
2022/10/14 06:31:11;;;;;;;40.67;29.17;;;14.10;1.00;;;;;;5048384;28;20230;-57
2022/10/14 06:33:36;;;;;;;34.33;28.27;;;14.10;1.00;;;;;;5052611;28;20190;-56
2022/10/14 06:36:04;;;;;;;35.07;26.93;;;14.10;1.00;;;;;;5047220;28;20272;-55
2022/10/14 06:38:30;;;;;;;36.97;29.60;;;14.20;1.00;;;;;;5049258;28;20189;-56
2022/10/14 06:40:55;;;;;;;36.90;28.43;;;14.20;1.00;;;;;;5043190;28;20455;-57
2022/10/14 06:43:21;;;;;;;34.60;26.30;;;14.20;1.00;;;;;;5048436;28;20319;-57
2022/10/14 06:45:47;;;;;;;38.13;29.03;;;14.30;1.00;;;;;;5049544;28;20181;-56
2022/10/14 06:48:13;;;;;;;37.37;28.83;;;14.30;1.00;;;;;;5052866;28;20438;-56
2022/10/14 06:50:39;;;;;;;35.23;28.20;;;14.40;1.00;;;;;;5047388;28;20933;-55
2022/10/14 06:53:05;;;;;;;37.00;27.50;;;14.50;1.00;;;;;;5051557;28;20208;-56
2022/10/14 06:55:30;;;;;;;40.67;30.30;;;14.50;1.00;;;;;;5049147;28;20444;-56
2022/10/14 06:57:57;;;;;;;37.40;27.40;;;14.50;1.00;;;;;;5048793;28;20258;-56
2022/10/14 07:00:22;;;;;;;34.87;28.40;;;14.60;1.00;;;;;;5053441;28;20194;-56
2022/10/14 07:02:48;;;;;;;36.13;27.50;;;14.60;1.00;;;;;;5070167;28;20436;-56
2022/10/14 07:05:14;;;;;;;34.20;28.13;;;14.60;1.00;;;;;;5051657;28;20192;-57
2022/10/14 07:07:39;;;;;;;36.17;27.90;;;14.70;1.00;;;;;;5054596;28;20274;-57
2022/10/14 07:10:05;;;;;;;33.70;27.63;;;14.80;1.00;;;;;;5052041;28;20673;-56
2022/10/14 07:12:31;;;;;;;39.77;27.53;;;14.70;1.00;;;;;;5054511;28;20289;-56
2022/10/14 07:14:57;;;;;;;39.10;28.77;;;14.80;1.00;;;;;;5050059;28;20591;-56
2022/10/14 07:17:23;;;;;;;33.87;27.43;;;14.90;1.00;;;;;;5044314;28;20219;-57
2022/10/14 07:19:48;;;;;;;37.97;30.40;;;14.90;1.00;;;;;;5049686;28;20249;-57
2022/10/14 07:22:16;;;;;;;39.37;28.70;;;15.00;1.00;;;;;;5055083;28;20214;-56
2022/10/14 07:24:42;;;;;;;34.80;27.33;;;15.00;1.00;;;;;;5042366;28;20559;-56
2022/10/14 07:27:08;;;;;;;37.77;27.57;;;15.00;1.00;;;;;;5060151;28;20413;-57
2022/10/14 07:29:34;;;;;;;34.20;27.17;;;15.10;1.00;;;;;;5047535;28;20452;-56
2022/10/14 07:32:00;;;;;;;36.13;27.13;;;15.20;1.00;;;;;;5049295;28;20414;-55
2022/10/14 07:34:26;;;;;;;36.40;27.80;;;15.20;1.00;;;;;;5054272;28;20182;-58
2022/10/14 07:36:51;;;;;;;31.07;26.60;;;15.30;1.00;;;;;;5059013;28;20215;-57
2022/10/14 07:39:17;;;;;;;34.37;27.27;;;15.30;1.00;;;;;;5054771;28;20457;-57
2022/10/14 07:41:43;;;;;;;39.33;29.43;;;15.30;1.00;;;;;;5053597;28;20181;-57
2022/10/14 07:44:12;;;;;;;33.63;27.37;;;15.40;1.00;;;;;;5054122;28;20313;-57
2022/10/14 07:46:41;;;;;;;31.87;27.13;;;15.40;1.00;;;;;;5058359;28;20688;-56
2022/10/14 07:49:11;;;;;;;33.27;26.40;;;15.50;1.00;;;;;;5057700;28;20415;-57
2022/10/14 07:51:38;;;;;;;32.73;26.47;;;15.60;1.00;;;;;;5048853;28;20443;-57
2022/10/14 07:54:10;;;;;;;36.90;29.23;;;15.50;1.00;;;;;;5053281;28;20464;-56
2022/10/14 07:56:37;;;;;;;31.27;27.20;;;15.50;1.00;;;;;;5056444;28;20962;-56
2022/10/14 07:59:03;;;;;;;36.97;27.50;;;15.50;1.00;;;;;;5063147;28;20449;-57
2022/10/14 08:01:28;;;;;;;33.70;27.97;;;15.60;1.00;;;;;;5058053;28;20470;-56
2022/10/14 08:03:54;;;;;;;38.53;27.80;;;15.70;1.00;;;;;;5060998;28;20186;-57
2022/10/14 08:06:20;;;;;;;34.80;26.63;;;15.70;1.00;;;;;;5048095;28;20237;-57
2022/10/14 08:08:46;;;;;;;35.10;28.37;;;15.80;1.00;;;;;;5061765;28;20669;-57
2022/10/14 08:11:24;;;;;;;32.40;26.70;;;15.80;1.00;;;;;;5054943;28;20428;-56
2022/10/14 08:13:51;;;;;;;36.63;26.90;;;15.80;1.00;;;;;;5060371;28;20943;-56
2022/10/14 08:16:20;;;;;;;35.00;28.00;;;15.90;1.00;;;;;;5051757;28;20464;-56
2022/10/14 08:18:46;;;;;;;33.40;26.70;;;15.80;1.00;;;;;;5050232;28;20447;-56
2022/10/14 08:21:13;;;;;;;34.00;27.40;;;15.80;1.00;;;;;;5066691;28;20419;-55
2022/10/14 08:23:39;;;;;;;34.40;29.27;;;15.80;1.00;;;;;;5069657;28;20473;-56
2022/10/14 08:26:23;;;;;;;36.93;28.10;;;15.90;1.00;;;;;;5052574;28;20416;-56
2022/10/14 08:28:50;;;;;;;40.63;29.20;;;16.00;1.00;;;;;;5053182;28;20440;-55
2022/10/14 08:31:16;;;;;;;37.10;29.60;;;16.20;1.00;;;;;;5052648;28;20436;-57
2022/10/14 08:33:42;;;;;;;34.60;27.77;;;16.30;1.00;;;;;;5064922;28;20413;-56
2022/10/14 08:36:08;;;;;;;34.83;27.87;;;16.40;1.00;;;;;;5072980;28;20442;-56
2022/10/14 08:38:33;;;;;;;33.20;27.90;;;16.40;1.00;;;;;;5062008;28;20187;-55
2022/10/14 08:41:15;;;;;;;35.20;26.07;;;16.70;1.00;;;;;;5052796;28;20185;-56
2022/10/14 08:44:04;;;;;;;30.93;26.57;;;16.40;1.00;;;;;;5052333;28;20235;-56
2022/10/14 08:46:40;;;;;;;36.90;29.17;;;16.50;1.00;;;;;;5052747;28;20933;-56
2022/10/14 08:49:12;;;;;;;34.73;28.10;;;16.50;1.00;;;;;;5061969;28;20510;-56
2022/10/14 08:51:44;;;;;;;36.60;27.80;;;16.60;1.00;;;;;;5072836;28;20440;-55
2022/10/14 08:54:14;;;;;;;39.70;28.00;;;16.70;1.00;;;;;;5072719;28;20441;-56
2022/10/14 08:56:41;;;;;;;37.50;27.73;;;16.90;1.00;;;;;;5053664;28;20464;-57
2022/10/14 08:59:13;;;;;;;39.50;26.43;;;16.90;1.00;;;;;;5057947;28;20421;-57
2022/10/14 09:01:52;;;;;;;36.77;26.40;;;17.00;1.00;;;;;;5072230;28;20456;-56
2022/10/14 09:04:18;;;;;;;33.00;24.73;;;17.20;1.00;;;;;;5063251;28;20936;-57
2022/10/14 09:06:47;;;;;;;34.70;25.23;;;17.20;1.00;;;;;;5070715;28;20433;-57
2022/10/14 09:09:40;;;;;;;33.27;24.70;;;17.40;1.00;;;;;;5072556;28;20454;-57
2022/10/14 09:12:12;;;;;;;42.63;26.37;;;17.50;1.00;;;;;;5053146;28;20966;-57
2022/10/14 09:14:44;;;;;;;29.07;25.63;;;17.50;1.00;;;;;;5051583;28;20414;-56
2022/10/14 09:17:23;;;;;;;28.20;24.07;;;17.70;1.00;;;;;;5050505;28;20794;-57
2022/10/14 09:19:58;;;;;;;31.30;25.27;;;17.70;1.00;;;;;;5064240;28;20775;-57
2022/10/14 09:22:26;;;;;;;32.03;26.27;;;17.70;1.00;;;;;;5061715;28;20449;-56
2022/10/14 09:24:51;;;;;;;28.67;24.70;;;17.60;1.00;;;;;;5066351;28;20418;-57
2022/10/14 09:27:21;;;;;;;31.80;26.10;;;17.60;1.00;;;;;;5051969;28;20417;-57
2022/10/14 09:29:55;;;;;;;30.73;26.27;;;17.50;1.00;;;;;;5066576;28;20182;-56
2022/10/14 09:32:29;;;;;;;31.53;25.93;;;17.50;1.00;;;;;;5052059;28;20470;-57
2022/10/14 09:34:56;;;;;;;40.63;27.30;;;17.70;1.00;;;;;;5057848;28;20535;-56
2022/10/14 09:37:34;;;;;;;31.13;25.03;;;17.70;1.00;;;;;;5057319;28;20555;-57
2022/10/14 09:40:02;;;;;;;29.70;25.33;;;17.70;1.00;;;;;;5051458;28;20417;-56
2022/10/14 09:42:47;;;;;;;31.63;26.50;;;17.70;1.00;;;;;;5051221;28;20431;-57
2022/10/14 09:45:16;;;;;;;36.47;26.23;;;17.80;1.00;;;;;;5045604;28;20440;-56
2022/10/14 09:48:06;;;;;;;37.47;27.47;;;18.00;1.00;;;;;;5071339;28;20934;-57
2022/10/14 09:50:41;;;;;;;34.30;25.47;;;18.00;1.00;;;;;;5070292;28;20961;-57
2022/10/14 09:53:29;;;;;;;37.60;24.50;;;18.30;1.00;;;;;;5070969;28;20415;-57
2022/10/14 09:56:03;;;;;;;28.30;24.67;;;18.50;1.00;;;;;;5050694;28;20436;-58
2022/10/14 09:58:41;;;;;;;33.27;24.60;;;18.50;1.00;;;;;;5067655;28;20455;-57
2022/10/14 10:01:15;;;;;;;30.20;25.90;;;18.60;1.00;;;;;;5051138;28;20424;-58
2022/10/14 10:03:41;;;;;;;30.63;24.23;;;18.60;1.00;;;;;;5049111;28;20440;-58
2022/10/14 10:06:10;;;;;;;33.00;27.77;;;18.60;1.00;;;;;;5051411;28;20523;-58
2022/10/14 10:08:58;;;;;;;26.87;22.60;;;18.70;1.00;;;;;;5058174;28;20175;-58
2022/10/14 10:11:36;;;;;;;25.97;23.03;;;18.80;1.00;;;;;;5064066;28;20440;-58
2022/10/14 10:14:22;;;;;;;26.70;22.57;;;18.80;1.00;;;;;;5049266;28;20445;-57
2022/10/14 10:16:50;;;;;;;26.43;21.70;;;18.70;1.00;;;;;;5055091;28;21030;-57
2022/10/14 10:19:33;;;;;;;28.67;22.80;;;18.60;1.00;;;;;;5051369;28;20800;-57
2022/10/14 10:22:21;;;;;;;27.33;22.60;;;18.60;1.00;;;;;;5056267;28;20932;-57
2022/10/14 10:24:49;;;;;;;24.73;20.30;;;18.70;1.00;;;;;;5050987;28;20444;-58
2022/10/14 10:27:30;;;;;;;25.20;21.17;;;18.70;1.00;;;;;;5053208;28;20451;-58
2022/10/14 10:29:55;;;;;;;20.10;18.00;;;18.60;1.00;;;;;;5058340;28;20442;-58
2022/10/14 10:32:29;;;;;;;21.23;17.33;;;18.60;1.00;;;;;;5049842;28;20526;-59
2022/10/14 10:35:03;;;;;;;19.50;17.00;;;18.60;1.00;;;;;;5053907;28;20547;-59
2022/10/14 10:37:36;;;;;;;22.17;18.57;;;18.70;1.00;;;;;;5067844;28;20433;-57
2022/10/14 10:40:23;;;;;;;22.17;17.47;;;18.70;1.00;;;;;;5061287;28;20466;-57
2022/10/14 10:42:57;;;;;;;19.77;17.73;;;18.80;1.00;;;;;;5050451;28;20465;-57
2022/10/14 10:46:14;;;;;;;24.20;16.07;;;18.90;1.00;;;;;;5046174;28;20426;-57
2022/10/14 10:48:46;;;;;;;19.60;17.47;;;19.00;1.00;;;;;;5038408;28;20422;-57
2022/10/14 10:51:22;;;;;;;20.07;17.30;;;19.10;1.00;;;;;;5047031;28;20416;-58
2022/10/14 10:53:50;;;;;;;20.67;16.47;;;19.10;1.00;;;;;;5047670;28;20490;-57
2022/10/14 10:56:49;;;;;;;21.93;17.87;;;19.20;1.00;;;;;;5049606;28;20416;-58
2022/10/14 10:59:34;;;;;;;16.37;14.60;;;19.30;1.00;;;;;;5050391;28;20444;-57
2022/10/14 11:02:20;;;;;;;21.00;16.20;;;19.10;1.00;;;;;;5047398;28;20449;-57
2022/10/14 11:04:54;;;;;;;24.17;14.90;;;19.10;1.00;;;;;;5068052;28;20404;-57
2022/10/14 11:13:34;;;;;;;19.87;16.40;;;18.80;1.00;;;;;;5048817;28;20453;-58
2022/10/14 11:16:13;;;;;;;18.93;15.87;;;18.90;1.00;;;;;;5048066;28;20537;-57
2022/10/14 11:18:53;;;;;;;21.70;15.40;;;19.10;1.00;;;;;;5046585;28;20539;-57
2022/10/14 11:21:47;;;;;;;19.43;16.00;;;19.40;1.00;;;;;;5055953;28;20520;-57
2022/10/14 11:24:19;;;;;;;16.13;14.43;;;19.70;1.00;;;;;;5042987;28;21051;-57
2022/10/14 11:26:47;;;;;;;22.60;13.93;;;19.70;1.00;;;;;;5054618;28;20434;-58
2022/10/14 11:29:49;;;;;;;17.03;14.43;;;19.50;1.00;;;;;;5054233;28;20691;-59
2022/10/14 11:32:41;;;;;;;21.87;14.80;;;19.30;1.00;;;;;;5053572;28;20422;-57
2022/10/14 11:35:23;;;;;;;20.00;15.70;;;19.10;1.00;;;;;;5041119;28;20502;-57
2022/10/14 11:38:20;;;;;;;19.50;15.07;;;18.80;1.00;;;;;;5067672;28;20444;-56
2022/10/14 11:41:16;;;;;;;21.67;16.00;;;18.80;1.00;;;;;;5057540;28;20455;-58
2022/10/14 11:44:09;;;;;;;16.80;14.80;;;18.80;1.00;;;;;;5055212;28;20526;-58
2022/10/14 11:46:41;;;;;;;20.10;13.70;;;18.90;1.00;;;;;;5052909;28;20968;-57
2022/10/14 11:49:13;;;;;;;14.47;12.80;;;18.90;1.00;;;;;;5042691;28;20437;-57
2022/10/14 11:51:44;;;;;;;16.97;11.50;;;18.90;1.00;;;;;;5054317;28;20426;-57
2022/10/14 11:54:23;;;;;;;8.97;4.60;;;19.00;1.00;;;;;;5047647;28;20882;-57
2022/10/14 11:57:03;;;;;;;9.90;8.77;;;19.00;1.00;;;;;;5044760;28;20436;-57
2022/10/14 11:59:39;;;;;;;10.80;6.43;;;18.90;1.00;;;;;;5049503;28;20445;-57
2022/10/14 12:02:19;;;;;;;7.23;4.90;;;19.00;1.00;;;;;;5051618;28;20452;-57
2022/10/14 12:04:53;;;;;;;5.00;3.70;;;19.20;1.00;;;;;;5042507;28;20524;-56
2022/10/14 12:07:27;;;;;;;4.50;4.10;;;19.40;1.00;;;;;;5061011;28;20427;-57
2022/10/14 12:10:02;;;;;;;4.53;4.13;;;19.40;1.00;;;;;;5046205;28;20432;-57
2022/10/14 12:12:29;;;;;;;4.40;3.93;;;19.40;1.00;;;;;;5043642;28;20485;-57
2022/10/14 12:15:00;;;;;;;4.00;3.60;;;19.50;1.00;;;;;;5043263;28;20458;-59
2022/10/14 12:17:29;;;;;;;4.43;3.83;;;19.60;1.00;;;;;;5056473;28;20474;-57
2022/10/14 12:19:55;;;;;;;5.53;4.93;;;19.80;1.00;;;;;;5053210;28;20428;-58
2022/10/14 12:22:25;;;;;;;8.70;5.27;;;19.80;1.00;;;;;;5054473;28;20431;-57
2022/10/14 12:24:57;;;;;;;4.03;3.53;;;19.80;1.00;;;;;;5064928;28;20489;-57
2022/10/14 12:27:27;;;;;;;4.20;3.63;;;19.80;1.00;;;;;;5062724;28;20421;-58
2022/10/14 12:29:56;;;;;;;4.20;3.70;;;19.80;1.00;;;;;;5059043;28;20448;-56
2022/10/14 12:32:24;;;;;;;3.90;3.40;;;19.60;1.00;;;;;;5058151;28;20448;-57
2022/10/14 12:34:55;;;;;;;6.83;4.77;;;19.50;1.00;;;;;;5052100;28;20845;-57
2022/10/14 12:37:23;;;;;;;5.30;4.80;;;19.50;1.00;;;;;;5057837;28;20473;-56
2022/10/14 12:40:13;;;;;;;4.63;4.20;;;19.40;1.00;;;;;;5064057;28;20443;-56
2022/10/14 12:42:42;;;;;;;8.17;5.07;;;19.30;1.00;;;;;;5053846;28;20421;-58
2022/10/14 12:45:22;;;;;;;6.33;5.10;;;19.30;1.00;;;;;;5049366;28;20627;-57
2022/10/14 12:48:03;;;;;;;9.10;4.43;;;19.40;1.00;;;;;;5052987;28;20416;-58
2022/10/14 12:50:34;;;;;;;9.90;4.97;;;19.60;1.00;;;;;;5049146;28;20449;-58
2022/10/14 12:53:28;;;;;;;7.33;4.80;;;19.70;1.00;;;;;;5064277;28;20864;-56
2022/10/14 12:55:59;;;;;;;4.20;3.80;;;19.70;1.00;;;;;;5062021;28;20478;-58
2022/10/14 12:58:33;;;;;;;4.80;4.40;;;19.70;1.00;;;;;;5055973;28;20493;-57
2022/10/14 13:01:15;;;;;;;5.30;4.73;;;19.70;1.00;;;;;;5056584;28;20442;-57
2022/10/14 13:03:55;;;;;;;4.90;3.60;;;19.90;1.00;;;;;;5043649;28;20523;-58